Val-Brillant, Canada
Current Conditions -  °F | °C
As of 4:00 AM on Wednesday 26 Nov 2014 (Local Time) from CYYY Reporting Station
Overcast Overcast  
Wind Chill: 28°   Ceiling: 4500
Heat Index: 36°   Visibility: 15mi
Dew Point: 30°   Wind: 12mph
Humidity: 81%   Direction: 260°W
Pressure: 29.96"   Gusts: 18mph
Location:  48.53°N, 67.57°W
Report Text: CYYY 260900Z 26010G16KT 15SM OVC045 02/M01 A2996 RMK SC8 PRESRR SLP147
Loading
Personal Weather Stations






























Interactive Weather Map New forecast layout! Learn more

10-Day Weather Forecast

Advertisements
Track Severe Weather on mobile